createdAt,value
2019-03-24T00:01:41.236Z,83.40
2019-03-24T00:04:09.175Z,58.77
2019-03-24T00:06:41.676Z,48.13
2019-03-24T00:09:14.123Z,36.93
2019-03-24T00:11:46.439Z,64.53
2019-03-24T00:14:18.689Z,50.13
2019-03-24T00:16:50.840Z,42.37
2019-03-24T00:19:22.994Z,43.40
2019-03-24T00:21:55.322Z,49.80
2019-03-24T00:24:27.457Z,57.17
2019-03-24T00:26:59.671Z,55.30
2019-03-24T00:29:31.911Z,61.67
2019-03-24T00:32:04.162Z,82.47
2019-03-24T00:34:36.418Z,55.10
2019-03-24T00:37:08.567Z,47.77
2019-03-24T00:39:40.793Z,41.37
2019-03-24T00:42:12.929Z,47.33
2019-03-24T00:44:45.079Z,54.67
2019-03-24T00:47:17.287Z,51.37
2019-03-24T00:49:49.439Z,49.57
2019-03-24T00:52:21.703Z,49.00
2019-03-24T00:54:53.912Z,44.20
2019-03-24T00:57:26.052Z,52.47
2019-03-24T00:59:58.294Z,45.63
2019-03-24T01:02:30.474Z,41.60
2019-03-24T01:05:02.701Z,46.87
2019-03-24T01:07:34.910Z,44.63
2019-03-24T01:10:07.370Z,40.90
2019-03-24T01:12:39.580Z,52.37
2019-03-24T01:15:11.900Z,41.50
2019-03-24T01:17:44.152Z,43.73
2019-03-24T01:20:17.822Z,35.93
2019-03-24T01:22:50.211Z,35.37
2019-03-24T01:25:23.975Z,34.73
2019-03-24T01:27:56.153Z,43.00
2019-03-24T01:30:28.302Z,43.43
2019-03-24T01:33:00.949Z,70.33
2019-03-24T01:35:33.151Z,115.70
2019-03-24T01:38:05.288Z,70.93
2019-03-24T01:40:38.483Z,83.50
2019-03-24T01:43:10.693Z,52.07
2019-03-24T01:45:42.889Z,80.73
2019-03-24T01:48:15.046Z,144.20
2019-03-24T01:50:47.191Z,89.40
2019-03-24T01:53:19.407Z,46.43
2019-03-24T01:55:51.619Z,46.03
2019-03-24T01:58:23.866Z,41.27
2019-03-24T02:00:56.007Z,39.60
2019-03-24T02:03:28.136Z,40.43
2019-03-24T02:06:00.278Z,44.50
2019-03-24T02:08:32.492Z,46.77
2019-03-24T02:11:04.721Z,44.40
2019-03-24T02:13:36.857Z,46.47
2019-03-24T02:16:09.804Z,46.33
2019-03-24T02:18:42.085Z,49.77
2019-03-24T02:21:14.515Z,57.83
2019-03-24T02:23:46.706Z,49.33
2019-03-24T02:26:18.889Z,53.47
2019-03-24T02:28:51.103Z,45.57
2019-03-24T02:31:23.324Z,52.03
2019-03-24T02:33:55.478Z,56.47
2019-03-24T02:36:27.668Z,54.57
2019-03-24T02:38:59.868Z,59.47
2019-03-24T02:41:32.083Z,46.93
2019-03-24T02:44:04.293Z,49.50
2019-03-24T02:46:36.597Z,43.53
2019-03-24T02:49:08.737Z,43.17
2019-03-24T02:51:40.949Z,46.70
2019-03-24T02:54:13.353Z,43.67
2019-03-24T02:56:45.490Z,49.70
2019-03-24T02:59:17.889Z,46.07
2019-03-24T03:01:50.102Z,62.13
2019-03-24T03:04:22.312Z,94.77
2019-03-24T03:06:54.504Z,54.03
2019-03-24T03:09:26.712Z,34.30
2019-03-24T03:11:58.858Z,43.37
2019-03-24T03:14:31.056Z,37.50
2019-03-24T03:17:03.289Z,50.70
2019-03-24T03:19:35.496Z,40.17
2019-03-24T03:22:07.744Z,33.43
2019-03-24T03:24:39.882Z,32.70
2019-03-24T03:27:12.039Z,50.80
2019-03-24T03:29:44.205Z,58.77
2019-03-24T03:32:16.350Z,56.27
2019-03-24T03:34:48.573Z,55.83
2019-03-24T03:37:20.705Z,56.20
2019-03-24T03:39:57.431Z,54.63
2019-03-24T03:42:26.790Z,48.83
2019-03-24T03:44:58.935Z,45.17
2019-03-24T03:47:31.188Z,70.60
2019-03-24T03:50:03.424Z,59.17
2019-03-24T03:52:35.577Z,64.43
2019-03-24T03:55:07.935Z,51.43
2019-03-24T03:57:40.516Z,47.63
2019-03-24T04:00:12.868Z,55.07
2019-03-24T04:02:45.074Z,63.70
2019-03-24T04:05:18.180Z,47.87
2019-03-24T04:07:50.381Z,38.63
2019-03-24T04:10:22.528Z,51.20
2019-03-24T04:12:54.652Z,46.43
2019-03-24T04:15:26.810Z,48.50
2019-03-24T04:17:59.114Z,48.23
2019-03-24T04:20:31.315Z,50.07
2019-03-24T04:23:03.460Z,40.90
2019-03-24T04:25:36.629Z,49.77
2019-03-24T04:28:08.819Z,118.93
2019-03-24T04:30:41.118Z,95.37
2019-03-24T04:33:13.383Z,91.70
2019-03-24T04:35:45.531Z,79.43
2019-03-24T04:38:17.675Z,75.73
2019-03-24T04:40:50.885Z,67.43
2019-03-24T04:43:23.019Z,67.17
2019-03-24T04:45:55.167Z,68.00
2019-03-24T04:48:27.302Z,69.87
2019-03-24T04:50:59.510Z,74.73
2019-03-24T04:53:31.653Z,76.17
2019-03-24T04:56:03.934Z,85.70
2019-03-24T04:58:36.071Z,72.63
2019-03-24T05:01:08.208Z,63.20
2019-03-24T05:03:40.531Z,74.50
2019-03-24T05:06:12.670Z,68.67
2019-03-24T05:08:44.824Z,65.37
2019-03-24T05:11:17.040Z,60.70
2019-03-24T05:13:49.177Z,76.80
2019-03-24T05:16:21.331Z,68.33
2019-03-24T05:18:53.480Z,56.93
2019-03-24T05:21:25.646Z,65.67
2019-03-24T05:23:57.910Z,64.17
2019-03-24T05:26:30.065Z,55.20
2019-03-24T05:29:02.222Z,60.70
2019-03-24T05:31:34.398Z,78.00
2019-03-24T05:34:06.623Z,81.90
2019-03-24T05:36:38.766Z,100.80
2019-03-24T05:39:10.899Z,106.53
2019-03-24T05:41:43.392Z,101.67
2019-03-24T05:44:15.534Z,100.73
2019-03-24T05:46:47.660Z,86.70
2019-03-24T05:49:19.795Z,64.30
2019-03-24T05:51:53.344Z,63.20
2019-03-24T05:54:25.866Z,63.80
2019-03-24T05:56:58.000Z,60.97
2019-03-24T05:59:30.154Z,59.07
2019-03-24T06:02:02.299Z,41.97
2019-03-24T06:04:34.501Z,46.87
2019-03-24T06:07:06.641Z,40.53
2019-03-24T06:09:38.818Z,38.23
2019-03-24T06:12:11.253Z,39.90
2019-03-24T06:14:44.599Z,34.67
2019-03-24T06:17:16.772Z,33.87
2019-03-24T06:19:48.904Z,36.67
2019-03-24T06:22:21.039Z,36.60
2019-03-24T06:24:53.254Z,42.07
2019-03-24T06:27:26.025Z,33.97
2019-03-24T06:29:58.228Z,33.30
2019-03-24T06:32:30.407Z,34.30
2019-03-24T06:35:02.552Z,40.20
2019-03-24T06:37:34.748Z,28.30
2019-03-24T06:40:06.965Z,38.43
2019-03-24T06:42:39.133Z,39.17
2019-03-24T06:45:11.282Z,32.03
2019-03-24T06:47:43.516Z,29.37
2019-03-24T06:50:15.646Z,33.43
2019-03-24T06:52:47.792Z,29.20
2019-03-24T06:55:19.927Z,37.30
2019-03-24T06:57:52.148Z,26.77
2019-03-24T07:00:24.287Z,29.57
2019-03-24T07:02:56.506Z,36.47
2019-03-24T07:05:32.520Z,25.43
2019-03-24T07:08:05.770Z,29.80
2019-03-24T07:10:38.098Z,31.30
2019-03-24T07:13:10.554Z,29.40
2019-03-24T07:15:42.688Z,31.50
2019-03-24T07:18:14.837Z,28.70
2019-03-24T07:20:47.090Z,20.37
2019-03-24T07:23:19.302Z,30.20
2019-03-24T07:25:51.554Z,28.53
2019-03-24T07:28:24.995Z,27.57
2019-03-24T07:30:58.251Z,32.50
2019-03-24T07:33:30.458Z,24.40
2019-03-24T07:36:02.602Z,36.33
2019-03-24T07:38:34.807Z,34.33
2019-03-24T07:41:07.036Z,21.37
2019-03-24T07:43:39.179Z,28.03
2019-03-24T07:46:11.758Z,21.13
2019-03-24T07:48:44.213Z,19.80
2019-03-24T07:51:16.354Z,22.53
2019-03-24T07:53:48.480Z,26.03
2019-03-24T07:56:20.624Z,34.73
2019-03-24T07:58:52.838Z,23.60
2019-03-24T08:01:25.091Z,21.93
2019-03-24T08:03:57.360Z,23.97
2019-03-24T08:06:29.467Z,21.83
2019-03-24T08:09:01.796Z,20.80
2019-03-24T08:11:34.728Z,18.73
2019-03-24T08:14:06.856Z,13.57
2019-03-24T08:16:39.002Z,15.87
2019-03-24T08:19:11.750Z,12.10
2019-03-24T08:21:44.210Z,28.77
2019-03-24T08:24:16.442Z,17.13
2019-03-24T08:26:48.574Z,16.07
2019-03-24T08:29:20.758Z,14.37
2019-03-24T08:31:52.918Z,8.63
2019-03-24T08:34:25.064Z,22.93
2019-03-24T08:36:57.196Z,13.17
2019-03-24T08:39:29.422Z,15.53
2019-03-24T08:42:01.557Z,12.47
2019-03-24T08:44:33.762Z,13.27
2019-03-24T08:47:05.912Z,11.60
2019-03-24T08:49:38.062Z,34.30
2019-03-24T08:52:10.577Z,26.00
2019-03-24T08:54:43.678Z,12.77
2019-03-24T08:57:15.827Z,11.83
2019-03-24T08:59:48.036Z,19.43
2019-03-24T09:02:20.173Z,17.23
2019-03-24T09:04:52.326Z,13.70
2019-03-24T09:07:24.490Z,40.70
2019-03-24T09:09:56.631Z,34.37
2019-03-24T09:12:31.101Z,17.40
2019-03-24T09:15:02.680Z,9.80
2019-03-24T09:17:34.926Z,31.30
2019-03-24T09:20:08.189Z,15.23
2019-03-24T09:22:40.567Z,21.13
2019-03-24T09:25:12.735Z,14.53
2019-03-24T09:27:44.982Z,13.53
2019-03-24T09:30:29.849Z,18.13
2019-03-24T09:33:02.976Z,23.17
2019-03-24T09:35:35.203Z,20.87
2019-03-24T09:38:07.379Z,15.00
2019-03-24T09:40:39.510Z,16.03
2019-03-24T09:43:11.784Z,11.20
2019-03-24T09:45:44.217Z,12.70
2019-03-24T09:48:16.372Z,15.00
2019-03-24T09:50:48.524Z,11.53
2019-03-24T09:53:20.678Z,14.30
2019-03-24T09:55:52.884Z,12.13
2019-03-24T09:58:25.060Z,28.23
2019-03-24T10:00:57.306Z,17.93
2019-03-24T10:03:29.445Z,9.83
2019-03-24T10:06:01.664Z,8.03
2019-03-24T10:08:33.881Z,9.57
2019-03-24T10:11:06.132Z,13.67
2019-03-24T10:13:38.363Z,12.73
2019-03-24T10:16:10.580Z,10.77
2019-03-24T10:18:42.731Z,8.97
2019-03-24T10:21:15.998Z,13.50
2019-03-24T10:23:48.127Z,9.03
2019-03-24T10:26:20.298Z,13.03
2019-03-24T10:28:52.523Z,10.57
2019-03-24T10:31:24.669Z,10.23
2019-03-24T10:33:56.820Z,12.37
2019-03-24T10:36:29.045Z,13.60
2019-03-24T10:39:01.200Z,14.67
2019-03-24T10:41:34.224Z,9.20
2019-03-24T10:44:06.377Z,12.47
2019-03-24T10:46:38.588Z,10.57
2019-03-24T10:49:10.796Z,12.50
2019-03-24T10:51:42.965Z,16.67
2019-03-24T10:54:15.175Z,24.43
2019-03-24T10:56:47.375Z,13.03
2019-03-24T10:59:19.593Z,10.43
2019-03-24T11:01:51.731Z,12.20
2019-03-24T11:04:23.900Z,11.10
2019-03-24T11:06:56.026Z,13.13
2019-03-24T11:09:28.228Z,18.17
2019-03-24T11:12:00.363Z,14.20
2019-03-24T11:14:32.583Z,22.17
2019-03-24T11:17:04.737Z,24.33
2019-03-24T11:19:36.967Z,10.57
2019-03-24T11:22:09.106Z,15.03
2019-03-24T11:24:41.754Z,24.13
2019-03-24T11:27:14.261Z,24.97
2019-03-24T11:29:46.472Z,12.43
2019-03-24T11:32:18.635Z,13.87
2019-03-24T11:34:50.788Z,20.43
2019-03-24T11:37:22.946Z,17.90
2019-03-24T11:39:55.093Z,11.80
2019-03-24T11:42:27.240Z,9.40
2019-03-24T11:44:59.370Z,8.60
2019-03-24T11:47:31.588Z,10.63
2019-03-24T11:50:03.799Z,10.53
2019-03-24T11:52:36.032Z,11.17
2019-03-24T11:55:08.854Z,7.43
2019-03-24T11:57:41.321Z,8.27
2019-03-24T12:00:13.547Z,6.40
2019-03-24T12:02:45.785Z,13.20
2019-03-24T12:05:17.980Z,12.43
2019-03-24T12:07:50.231Z,9.70
2019-03-24T12:10:22.366Z,17.33
2019-03-24T12:12:54.573Z,8.07
2019-03-24T12:15:26.803Z,10.70
2019-03-24T12:17:58.962Z,11.47
2019-03-24T12:20:31.142Z,12.97
2019-03-24T12:23:03.413Z,27.60
2019-03-24T12:25:35.562Z,14.93
2019-03-24T12:28:07.787Z,10.70
2019-03-24T12:30:39.958Z,12.20
2019-03-24T12:33:12.107Z,9.77
2019-03-24T12:35:44.272Z,9.63
2019-03-24T12:38:16.428Z,8.77
2019-03-24T12:40:48.582Z,7.97
2019-03-24T12:43:20.822Z,7.90
2019-03-24T12:45:52.976Z,8.00
2019-03-24T12:48:25.249Z,10.47
2019-03-24T12:50:57.667Z,7.53
2019-03-24T12:53:29.815Z,21.23
2019-03-24T12:56:02.078Z,11.10
2019-03-24T12:58:34.312Z,16.13
2019-03-24T13:01:06.548Z,7.80
2019-03-24T13:03:38.774Z,9.13
2019-03-24T13:06:10.926Z,14.33
2019-03-24T13:08:43.462Z,10.17
2019-03-24T13:11:15.661Z,6.50
2019-03-24T13:13:47.883Z,12.97
2019-03-24T13:16:20.038Z,7.67
2019-03-24T13:18:52.212Z,9.70
2019-03-24T13:21:24.357Z,15.67
2019-03-24T13:23:56.513Z,10.93
2019-03-24T13:26:28.673Z,25.57
2019-03-24T13:29:00.881Z,11.10
2019-03-24T13:31:34.111Z,7.23
2019-03-24T13:34:06.259Z,11.37
2019-03-24T13:36:38.419Z,11.80
2019-03-24T13:39:10.695Z,23.60
2019-03-24T13:41:42.932Z,14.33
2019-03-24T13:44:15.095Z,38.80
2019-03-24T13:46:47.302Z,7.63
2019-03-24T13:49:19.445Z,6.23
2019-03-24T13:51:51.593Z,7.03
2019-03-24T13:54:23.746Z,12.17
2019-03-24T13:56:55.964Z,8.67
2019-03-24T13:59:28.106Z,11.10
2019-03-24T14:02:01.216Z,14.17
2019-03-24T14:04:33.432Z,7.37
2019-03-24T14:07:05.656Z,11.73
2019-03-24T14:09:37.885Z,16.93
2019-03-24T14:12:10.065Z,242.00
2019-03-24T14:14:42.335Z,18.27
2019-03-24T14:17:14.668Z,10.90
2019-03-24T14:19:46.832Z,13.63
2019-03-24T14:22:19.057Z,29.87
2019-03-24T14:24:51.212Z,7.83
2019-03-24T14:27:23.372Z,8.33
2019-03-24T14:29:56.483Z,6.53
2019-03-24T14:32:28.630Z,15.50
2019-03-24T14:35:00.784Z,9.77
2019-03-24T14:37:33.020Z,14.13
2019-03-24T14:40:05.443Z,7.93
2019-03-24T14:42:37.693Z,9.13
2019-03-24T14:45:10.803Z,8.57
2019-03-24T14:47:43.020Z,10.77
2019-03-24T14:50:15.455Z,11.40
2019-03-24T14:52:47.616Z,8.53
2019-03-24T14:55:19.855Z,15.23
2019-03-24T14:57:52.062Z,13.60
2019-03-24T15:00:34.865Z,11.17
2019-03-24T15:03:07.088Z,9.27
2019-03-24T15:05:39.315Z,15.50
2019-03-24T15:08:11.968Z,7.33
2019-03-24T15:10:44.357Z,8.50
2019-03-24T15:13:17.680Z,10.40
2019-03-24T15:15:49.897Z,11.17
2019-03-24T15:18:22.036Z,9.80
2019-03-24T15:21:04.887Z,8.03
2019-03-24T15:23:28.178Z,44.13
2019-03-24T15:26:00.325Z,8.03
2019-03-24T15:28:32.471Z,6.83
2019-03-24T15:31:04.690Z,10.27
2019-03-24T15:33:36.919Z,27.40
2019-03-24T15:36:09.158Z,11.10
2019-03-24T15:38:41.846Z,33.10
2019-03-24T15:41:14.423Z,12.77
2019-03-24T15:43:46.635Z,14.77
2019-03-24T15:46:18.775Z,16.70
2019-03-24T15:48:51.004Z,32.67
2019-03-24T15:51:23.252Z,49.23
2019-03-24T15:53:55.471Z,36.33
2019-03-24T15:56:27.619Z,45.90
2019-03-24T15:58:59.763Z,59.70
2019-03-24T16:01:31.913Z,28.93
2019-03-24T16:04:04.074Z,33.93
2019-03-24T16:06:36.298Z,55.47
2019-03-24T16:09:09.007Z,11.37
2019-03-24T16:11:41.157Z,22.63
2019-03-24T16:14:13.597Z,18.53
2019-03-24T16:16:45.915Z,16.50
2019-03-24T16:19:18.066Z,18.47
2019-03-24T16:21:50.206Z,33.73
2019-03-24T16:24:22.382Z,62.70
2019-03-24T16:26:54.611Z,76.80
2019-03-24T16:29:26.793Z,70.30
2019-03-24T16:31:59.022Z,74.80
2019-03-24T16:34:31.192Z,47.03
2019-03-24T16:37:03.369Z,66.30
2019-03-24T16:39:35.552Z,108.53
2019-03-24T16:42:07.712Z,59.80
2019-03-24T16:44:39.858Z,59.20
2019-03-24T16:47:12.008Z,38.87
2019-03-24T16:49:44.496Z,30.10
2019-03-24T16:52:16.660Z,45.80
2019-03-24T16:54:48.832Z,48.90
2019-03-24T16:57:20.985Z,39.30
2019-03-24T16:59:53.159Z,26.47
2019-03-24T17:02:25.306Z,43.47
2019-03-24T17:04:57.540Z,22.27
2019-03-24T17:07:29.699Z,10.20
2019-03-24T17:10:01.932Z,16.90
2019-03-24T17:12:34.222Z,34.13
2019-03-24T17:15:06.753Z,267.33
2019-03-24T17:17:39.002Z,337.23
2019-03-24T17:20:11.241Z,239.50
2019-03-24T17:22:45.621Z,220.93
2019-03-24T17:25:24.239Z,177.47
2019-03-24T17:28:00.868Z,168.87
2019-03-24T17:30:33.233Z,108.03
2019-03-24T17:33:06.299Z,55.83
2019-03-24T17:35:39.351Z,25.53
2019-03-24T17:38:11.702Z,30.33
2019-03-24T17:40:44.230Z,79.37
2019-03-24T17:43:17.541Z,63.23
2019-03-24T17:45:49.996Z,75.20
2019-03-24T17:48:22.394Z,102.03
2019-03-24T17:50:54.857Z,89.17
2019-03-24T17:53:28.345Z,99.00
2019-03-24T17:56:00.804Z,49.93
2019-03-24T17:58:33.197Z,51.03
2019-03-24T18:01:05.555Z,63.07
2019-03-24T18:03:37.910Z,85.97
2019-03-24T18:06:10.528Z,33.63
2019-03-24T18:08:43.008Z,57.97
2019-03-24T18:11:19.290Z,76.77
2019-03-24T18:13:51.935Z,56.93
2019-03-24T18:16:24.524Z,57.67
2019-03-24T18:18:57.143Z,74.87
2019-03-24T18:21:31.813Z,76.97
2019-03-24T18:24:06.338Z,79.63
2019-03-24T18:26:40.249Z,86.43
2019-03-24T18:29:13.428Z,80.30
2019-03-24T18:31:45.763Z,69.53
2019-03-24T18:34:18.167Z,112.27
2019-03-24T18:36:50.687Z,167.67
2019-03-24T18:39:23.228Z,119.37
2019-03-24T18:41:55.802Z,82.17
2019-03-24T18:44:28.311Z,61.37
2019-03-24T18:47:00.779Z,83.90
2019-03-24T18:49:33.432Z,211.10
2019-03-24T18:52:05.671Z,200.43
2019-03-24T18:54:38.073Z,236.97
2019-03-24T18:57:10.469Z,355.50
2019-03-24T18:59:42.918Z,190.47
2019-03-24T19:02:15.074Z,105.67
2019-03-24T19:04:47.239Z,130.63
2019-03-24T19:07:19.500Z,143.60
2019-03-24T19:09:52.401Z,79.77
2019-03-24T19:12:24.831Z,147.03
2019-03-24T19:14:57.153Z,75.00
2019-03-24T19:17:29.807Z,43.00
2019-03-24T19:20:02.305Z,42.33
2019-03-24T19:22:34.855Z,51.43
2019-03-24T19:25:07.617Z,76.27
2019-03-24T19:27:40.729Z,68.20
2019-03-24T19:30:13.409Z,94.23
2019-03-24T19:32:46.105Z,72.50
2019-03-24T19:35:19.920Z,66.43
2019-03-24T19:37:52.915Z,48.37
2019-03-24T19:40:29.669Z,28.60
2019-03-24T19:43:04.978Z,34.33
2019-03-24T19:45:38.008Z,31.10
2019-03-24T19:48:10.534Z,35.97
2019-03-24T19:50:43.850Z,35.13
2019-03-24T19:53:20.072Z,44.13
2019-03-24T19:55:54.194Z,67.03
2019-03-24T19:58:26.424Z,38.77
2019-03-24T20:00:58.639Z,65.03
2019-03-24T20:03:30.860Z,33.43
2019-03-24T20:06:03.089Z,35.20
2019-03-24T20:08:35.401Z,30.23
2019-03-24T20:11:08.630Z,27.83
2019-03-24T20:13:40.854Z,20.47
2019-03-24T20:16:13.698Z,24.57
2019-03-24T20:18:46.205Z,22.40
2019-03-24T20:21:18.428Z,28.50
2019-03-24T20:23:50.743Z,97.63
2019-03-24T20:26:22.973Z,32.97
2019-03-24T20:28:55.202Z,52.07
2019-03-24T20:31:27.443Z,28.10
2019-03-24T20:33:59.661Z,33.43
2019-03-24T20:36:31.886Z,27.00
2019-03-24T20:39:06.650Z,23.93
2019-03-24T20:41:39.301Z,23.10
2019-03-24T20:44:11.575Z,20.80
2019-03-24T20:46:43.871Z,28.43
2019-03-24T20:49:16.050Z,26.47
2019-03-24T20:51:48.405Z,25.17
2019-03-24T20:54:21.031Z,32.07
2019-03-24T20:56:53.341Z,25.67
2019-03-24T20:59:25.599Z,28.20
2019-03-24T21:01:58.145Z,37.43
2019-03-24T21:04:30.587Z,33.50
2019-03-24T21:07:02.891Z,27.13
2019-03-24T21:09:37.022Z,23.90
2019-03-24T21:12:09.383Z,27.00
2019-03-24T21:14:41.743Z,29.37
2019-03-24T21:17:14.654Z,34.70
2019-03-24T21:19:46.914Z,34.83
2019-03-24T21:22:19.264Z,36.30
2019-03-24T21:24:52.531Z,39.97
2019-03-24T21:27:25.376Z,38.30
2019-03-24T21:29:58.193Z,33.60
2019-03-24T21:32:30.458Z,45.43
2019-03-24T21:35:02.685Z,46.80
2019-03-24T21:37:34.916Z,63.07
2019-03-24T21:40:08.767Z,128.73
2019-03-24T21:42:41.282Z,78.23
2019-03-24T21:45:13.637Z,109.20
2019-03-24T21:47:46.492Z,135.23
2019-03-24T21:50:18.833Z,126.70
2019-03-24T21:52:51.054Z,213.80
2019-03-24T21:55:23.319Z,194.87
2019-03-24T21:57:57.811Z,249.93
2019-03-24T22:00:39.026Z,477.93
2019-03-24T22:03:11.253Z,312.67
2019-03-24T22:05:43.626Z,209.43
2019-03-24T22:08:16.100Z,238.00
2019-03-24T22:10:48.346Z,262.10
2019-03-24T22:13:20.573Z,280.67
2019-03-24T22:15:52.722Z,258.17
2019-03-24T22:18:24.953Z,248.93
2019-03-24T22:20:57.115Z,244.77
2019-03-24T22:23:29.267Z,234.70
2019-03-24T22:26:01.482Z,162.77
2019-03-24T22:28:34.894Z,143.37
2019-03-24T22:31:07.134Z,180.90
2019-03-24T22:33:39.331Z,235.53
2019-03-24T22:36:11.479Z,227.43
2019-03-24T22:38:43.646Z,177.90
2019-03-24T22:41:16.113Z,161.60
2019-03-24T22:43:48.274Z,146.23
2019-03-24T22:46:20.418Z,152.37
2019-03-24T22:48:52.762Z,160.83
2019-03-24T22:51:24.921Z,72.53
2019-03-24T22:54:03.132Z,84.43
2019-03-24T22:56:30.895Z,71.23
2019-03-24T22:59:03.115Z,82.00
2019-03-24T23:01:35.273Z,135.70
2019-03-24T23:04:07.480Z,191.87
2019-03-24T23:06:39.718Z,213.43
2019-03-24T23:09:12.461Z,200.87
2019-03-24T23:11:44.883Z,191.87
2019-03-24T23:14:17.152Z,165.13
2019-03-24T23:16:49.386Z,116.00
2019-03-24T23:19:21.621Z,92.60
2019-03-24T23:21:53.838Z,58.97
2019-03-24T23:24:26.057Z,88.80
2019-03-24T23:26:58.287Z,77.13
2019-03-24T23:29:30.514Z,106.97
2019-03-24T23:32:02.752Z,169.53
2019-03-24T23:34:34.988Z,134.80
2019-03-24T23:37:07.333Z,92.90
2019-03-24T23:39:39.563Z,109.07
2019-03-24T23:42:11.779Z,81.30
2019-03-24T23:44:43.993Z,76.47
2019-03-24T23:47:16.379Z,69.07
2019-03-24T23:49:48.543Z,171.93
2019-03-24T23:52:20.769Z,166.13
2019-03-24T23:54:53.084Z,137.30
2019-03-24T23:57:25.282Z,103.13
2019-03-24T23:59:57.514Z,122.70
